createdAt,value
2023-03-03T00:00:50.677Z,56.23
2023-03-03T00:01:50.650Z,54.01
2023-03-03T00:02:50.666Z,58.91
2023-03-03T00:03:50.715Z,51.41
2023-03-03T00:04:50.641Z,49.56
2023-03-03T00:05:50.606Z,44.72
2023-03-03T00:06:50.611Z,55.22
2023-03-03T00:07:50.595Z,48.27
2023-03-03T00:08:50.641Z,59.57
2023-03-03T00:09:50.654Z,57.08
2023-03-03T00:10:50.604Z,56.75
2023-03-03T00:11:50.596Z,41.74
2023-03-03T00:12:50.561Z,41.52
2023-03-03T00:13:50.610Z,50.97
2023-03-03T00:14:50.538Z,61.98
2023-03-03T00:15:50.676Z,48.50
2023-03-03T00:16:50.539Z,43.15
2023-03-03T00:17:50.517Z,59.52
2023-03-03T00:18:50.566Z,53.25
2023-03-03T00:19:50.501Z,51.38
2023-03-03T00:20:50.485Z,52.85
2023-03-03T00:21:50.495Z,52.01
2023-03-03T00:22:50.480Z,48.82
2023-03-03T00:23:50.497Z,47.90
2023-03-03T00:24:50.463Z,46.49
2023-03-03T00:25:50.458Z,45.86
2023-03-03T00:26:50.476Z,52.50
2023-03-03T00:27:50.432Z,44.14
2023-03-03T00:28:50.454Z,47.40
2023-03-03T00:29:50.423Z,46.77
2023-03-03T00:30:50.462Z,45.98
2023-03-03T00:31:50.423Z,51.64
2023-03-03T00:32:50.401Z,44.13
2023-03-03T00:33:50.421Z,47.47
2023-03-03T00:34:50.386Z,54.82
2023-03-03T00:35:50.471Z,47.00
2023-03-03T00:36:50.371Z,44.05
2023-03-03T00:37:50.366Z,49.35
2023-03-03T00:38:50.381Z,47.31
2023-03-03T00:39:50.368Z,48.66
2023-03-03T00:40:50.335Z,48.51
2023-03-03T00:41:50.345Z,53.56
2023-03-03T00:42:50.323Z,60.65
2023-03-03T00:43:50.338Z,57.57
2023-03-03T00:44:50.308Z,58.03
2023-03-03T00:45:50.406Z,59.77
2023-03-03T00:46:50.291Z,61.04
2023-03-03T00:47:50.281Z,59.50
2023-03-03T00:48:51.303Z,59.51
2023-03-03T00:49:50.270Z,59.11
2023-03-03T00:50:50.260Z,58.46
2023-03-03T00:51:50.263Z,63.03
2023-03-03T00:52:50.250Z,58.91
2023-03-03T00:53:50.292Z,59.08
2023-03-03T00:54:50.246Z,58.48
2023-03-03T00:55:50.229Z,58.52
2023-03-03T00:56:50.224Z,58.34
2023-03-03T00:57:50.237Z,59.33
2023-03-03T00:58:50.237Z,58.40
2023-03-03T00:59:50.206Z,58.25
2023-03-03T01:00:50.194Z,58.37
2023-03-03T01:01:50.273Z,66.06
2023-03-03T01:02:50.187Z,59.45
2023-03-03T01:03:50.188Z,58.92
2023-03-03T01:04:50.176Z,59.11
2023-03-03T01:05:50.148Z,59.74
2023-03-03T01:06:50.144Z,58.94
2023-03-03T01:07:50.138Z,59.96
2023-03-03T01:08:50.118Z,65.85
2023-03-03T01:09:50.140Z,59.70
2023-03-03T01:10:50.105Z,59.60
2023-03-03T01:11:50.100Z,59.05
2023-03-03T01:12:50.090Z,60.55
2023-03-03T01:13:50.078Z,60.87
2023-03-03T01:14:50.099Z,58.89
2023-03-03T01:15:50.095Z,59.31
2023-03-03T01:16:50.076Z,58.35
2023-03-03T01:17:50.061Z,59.23
2023-03-03T01:18:50.049Z,55.86
2023-03-03T01:19:50.063Z,53.11
2023-03-03T01:20:50.031Z,41.93
2023-03-03T01:21:50.036Z,50.38
2023-03-03T01:22:50.013Z,48.83
2023-03-03T01:23:50.031Z,45.39
2023-03-03T01:24:50.059Z,57.05
2023-03-03T01:25:49.987Z,47.17
2023-03-03T01:26:49.982Z,48.41
2023-03-03T01:27:49.976Z,48.91
2023-03-03T01:28:49.965Z,47.05
2023-03-03T01:29:49.983Z,61.34
2023-03-03T01:30:49.964Z,52.40
2023-03-03T01:31:49.949Z,52.68
2023-03-03T01:32:49.933Z,55.37
2023-03-03T01:33:49.933Z,51.62
2023-03-03T01:34:49.949Z,53.42
2023-03-03T01:35:49.924Z,50.67
2023-03-03T01:36:49.902Z,52.19
2023-03-03T01:37:49.900Z,60.01
2023-03-03T01:38:49.884Z,51.57
2023-03-03T01:39:49.923Z,50.02
2023-03-03T01:40:49.905Z,50.55
2023-03-03T01:41:49.862Z,48.65
2023-03-03T01:42:49.868Z,56.21
2023-03-03T01:43:49.846Z,44.45
2023-03-03T01:44:49.870Z,46.92
2023-03-03T01:45:49.829Z,43.07
2023-03-03T01:46:49.846Z,47.62
2023-03-03T01:47:49.829Z,49.98
2023-03-03T01:48:49.805Z,54.03
2023-03-03T01:49:49.835Z,46.57
2023-03-03T01:50:49.795Z,45.85
2023-03-03T01:51:49.811Z,50.86
2023-03-03T01:52:49.799Z,51.68
2023-03-03T01:53:49.770Z,50.69
2023-03-03T01:54:49.787Z,50.21
2023-03-03T01:55:49.781Z,47.31
2023-03-03T01:56:49.749Z,50.40
2023-03-03T01:57:49.776Z,49.21
2023-03-03T01:58:49.746Z,44.20
2023-03-03T01:59:49.798Z,49.53
2023-03-03T02:00:49.708Z,43.45
2023-03-03T02:01:49.775Z,53.80
2023-03-03T02:02:49.776Z,52.74
2023-03-03T02:03:49.689Z,50.45
2023-03-03T02:04:49.713Z,47.99
2023-03-03T02:05:49.680Z,50.90
2023-03-03T02:06:49.670Z,50.68
2023-03-03T02:07:49.662Z,57.77
2023-03-03T02:08:49.687Z,53.27
2023-03-03T02:09:49.684Z,50.72
2023-03-03T02:10:49.638Z,54.37
2023-03-03T02:11:49.634Z,52.31
2023-03-03T02:12:49.635Z,52.52
2023-03-03T02:13:49.613Z,53.96
2023-03-03T02:14:49.710Z,53.68
2023-03-03T02:15:49.643Z,53.12
2023-03-03T02:16:49.637Z,50.12
2023-03-03T02:17:49.587Z,49.75
2023-03-03T02:18:49.582Z,49.99
2023-03-03T02:19:49.606Z,57.53
2023-03-03T02:20:49.569Z,52.89
2023-03-03T02:21:49.574Z,55.14
2023-03-03T02:22:49.576Z,51.68
2023-03-03T02:23:49.532Z,50.47
2023-03-03T02:24:50.585Z,59.92
2023-03-03T02:25:49.536Z,60.43
2023-03-03T02:26:49.522Z,45.49
2023-03-03T02:27:49.514Z,53.11
2023-03-03T02:28:49.512Z,52.14
2023-03-03T02:29:49.540Z,55.64
2023-03-03T02:30:49.496Z,51.81
2023-03-03T02:31:49.597Z,54.02
2023-03-03T02:32:49.482Z,56.36
2023-03-03T02:33:49.488Z,51.07
2023-03-03T02:34:49.504Z,54.82
2023-03-03T02:35:49.498Z,52.46
2023-03-03T02:36:49.462Z,49.69
2023-03-03T02:37:49.446Z,46.59
2023-03-03T02:38:49.470Z,45.76
2023-03-03T02:39:49.431Z,53.21
2023-03-03T02:40:49.447Z,45.78
2023-03-03T02:41:49.414Z,47.90
2023-03-03T02:42:49.418Z,58.46
2023-03-03T02:43:49.398Z,58.37
2023-03-03T02:44:49.393Z,61.57
2023-03-03T02:45:49.456Z,62.62
2023-03-03T02:46:49.393Z,60.06
2023-03-03T02:47:49.379Z,59.83
2023-03-03T02:48:49.361Z,59.51
2023-03-03T02:49:49.361Z,62.60
2023-03-03T02:50:49.367Z,60.22
2023-03-03T02:51:49.348Z,59.62
2023-03-03T02:52:49.329Z,59.34
2023-03-03T02:53:49.324Z,62.12
2023-03-03T02:54:49.367Z,59.41
2023-03-03T02:55:49.345Z,59.74
2023-03-03T02:56:49.297Z,60.14
2023-03-03T02:57:49.303Z,59.77
2023-03-03T02:58:49.293Z,58.89
2023-03-03T02:59:49.278Z,61.35
2023-03-03T03:00:49.299Z,60.65
2023-03-03T03:01:49.274Z,59.05
2023-03-03T03:02:49.249Z,59.90
2023-03-03T03:03:49.433Z,61.86
2023-03-03T03:04:49.234Z,58.71
2023-03-03T03:05:49.250Z,60.26
2023-03-03T03:06:49.219Z,59.68
2023-03-03T03:07:49.205Z,59.44
2023-03-03T03:08:49.206Z,59.04
2023-03-03T03:09:49.232Z,59.59
2023-03-03T03:10:49.273Z,62.01
2023-03-03T03:11:49.256Z,60.79
2023-03-03T03:12:49.182Z,62.95
2023-03-03T03:13:49.171Z,59.89
2023-03-03T03:14:49.163Z,60.26
2023-03-03T03:15:49.173Z,59.52
2023-03-03T03:16:49.192Z,59.06
2023-03-03T03:17:49.136Z,52.92
2023-03-03T03:18:49.124Z,50.62
2023-03-03T03:19:49.119Z,51.53
2023-03-03T03:20:49.150Z,52.02
2023-03-03T03:21:49.120Z,49.27
2023-03-03T03:22:49.107Z,47.55
2023-03-03T03:23:49.098Z,49.54
2023-03-03T03:24:49.093Z,48.78
2023-03-03T03:25:49.117Z,46.00
2023-03-03T03:26:49.066Z,49.58
2023-03-03T03:27:49.102Z,52.37
2023-03-03T03:28:49.120Z,47.79
2023-03-03T03:29:49.061Z,51.52
2023-03-03T03:30:49.117Z,47.76
2023-03-03T03:31:49.068Z,51.53
2023-03-03T03:32:49.084Z,52.78
2023-03-03T03:33:49.031Z,53.94
2023-03-03T03:34:49.011Z,58.12
2023-03-03T03:35:49.045Z,57.45
2023-03-03T03:36:49.028Z,52.96
2023-03-03T03:37:49.008Z,54.54
2023-03-03T03:38:48.989Z,62.54
2023-03-03T03:39:48.976Z,53.74
2023-03-03T03:40:48.989Z,52.28
2023-03-03T03:41:48.977Z,57.00
2023-03-03T03:42:48.975Z,53.22
2023-03-03T03:43:48.953Z,54.68
2023-03-03T03:44:48.939Z,54.35
2023-03-03T03:45:48.959Z,57.03
2023-03-03T03:46:48.947Z,59.68
2023-03-03T03:47:48.930Z,52.92
2023-03-03T03:48:48.912Z,49.89
2023-03-03T03:49:48.906Z,54.99
2023-03-03T03:50:48.890Z,59.88
2023-03-03T03:51:48.940Z,56.72
2023-03-03T03:52:48.888Z,54.78
2023-03-03T03:53:48.868Z,51.24
2023-03-03T03:54:48.885Z,54.39
2023-03-03T03:55:48.852Z,50.94
2023-03-03T03:56:48.939Z,52.28
2023-03-03T03:57:48.847Z,55.84
2023-03-03T03:58:48.838Z,53.35
2023-03-03T03:59:48.832Z,49.90
2023-03-03T04:00:48.830Z,62.57
2023-03-03T04:01:48.833Z,51.40
2023-03-03T04:02:48.891Z,58.36
2023-03-03T04:03:48.802Z,49.87
2023-03-03T04:04:48.794Z,50.65
2023-03-03T04:05:48.823Z,50.74
2023-03-03T04:06:48.810Z,53.55
2023-03-03T04:07:48.771Z,54.86
2023-03-03T04:08:48.767Z,54.31
2023-03-03T04:09:48.791Z,58.59
2023-03-03T04:10:48.741Z,60.02
2023-03-03T04:11:48.772Z,60.32
2023-03-03T04:12:48.730Z,64.84
2023-03-03T04:13:48.742Z,64.78
2023-03-03T04:14:48.723Z,61.04
2023-03-03T04:15:48.752Z,60.82
2023-03-03T04:16:48.741Z,61.80
2023-03-03T04:17:48.696Z,61.51
2023-03-03T04:18:48.707Z,62.95
2023-03-03T04:19:48.693Z,66.24
2023-03-03T04:20:48.680Z,61.84
2023-03-03T04:21:49.380Z,62.74
2023-03-03T04:22:48.690Z,62.92
2023-03-03T04:23:48.745Z,63.84
2023-03-03T04:24:48.714Z,62.48
2023-03-03T04:25:48.746Z,62.35
2023-03-03T04:26:48.669Z,63.01
2023-03-03T04:27:48.656Z,63.05
2023-03-03T04:28:48.699Z,64.39
2023-03-03T04:29:48.611Z,62.32
2023-03-03T04:30:48.641Z,62.62
2023-03-03T04:31:48.628Z,64.34
2023-03-03T04:32:48.589Z,65.97
2023-03-03T04:33:49.582Z,62.45
2023-03-03T04:34:53.103Z,61.45
2023-03-03T04:35:50.590Z,60.76
2023-03-03T04:36:48.589Z,59.75
2023-03-03T04:37:48.572Z,60.04
2023-03-03T04:38:48.561Z,64.36
2023-03-03T04:39:48.547Z,60.59
2023-03-03T04:40:48.622Z,61.23
2023-03-03T04:41:48.558Z,62.58
2023-03-03T04:42:48.525Z,61.05
2023-03-03T04:43:48.554Z,63.81
2023-03-03T04:44:48.504Z,60.98
2023-03-03T04:45:48.528Z,60.81
2023-03-03T04:46:48.489Z,61.61
2023-03-03T04:47:48.479Z,59.40
2023-03-03T04:48:48.525Z,61.62
2023-03-03T04:49:48.483Z,59.82
2023-03-03T04:50:48.474Z,53.21
2023-03-03T04:51:48.479Z,57.77
2023-03-03T04:52:48.475Z,57.58
2023-03-03T04:53:48.481Z,52.70
2023-03-03T04:54:48.441Z,61.92
2023-03-03T04:55:48.433Z,55.15
2023-03-03T04:56:48.552Z,57.75
2023-03-03T04:57:48.413Z,56.30
2023-03-03T04:58:48.430Z,54.15
2023-03-03T04:59:48.394Z,58.75
2023-03-03T05:00:48.380Z,54.46
2023-03-03T05:01:48.409Z,62.44
2023-03-03T05:02:48.384Z,56.66
2023-03-03T05:03:48.381Z,56.24
2023-03-03T05:04:48.466Z,56.36
2023-03-03T05:05:48.338Z,57.67
2023-03-03T05:06:48.355Z,58.33
2023-03-03T05:07:48.321Z,61.04
2023-03-03T05:08:48.361Z,53.37
2023-03-03T05:09:48.326Z,57.67
2023-03-03T05:10:48.295Z,56.13
2023-03-03T05:11:48.319Z,58.74
2023-03-03T05:12:48.287Z,59.07
2023-03-03T05:13:48.344Z,57.89
2023-03-03T05:14:48.264Z,57.30
2023-03-03T05:15:48.357Z,62.86
2023-03-03T05:16:48.245Z,59.32
2023-03-03T05:17:48.326Z,55.17
2023-03-03T05:18:48.262Z,58.26
2023-03-03T05:19:48.230Z,60.56
2023-03-03T05:20:48.236Z,59.52
2023-03-03T05:21:48.211Z,58.49
2023-03-03T05:22:48.207Z,58.46
2023-03-03T05:23:48.226Z,58.07
2023-03-03T05:24:48.203Z,58.52
2023-03-03T05:25:48.190Z,58.25
2023-03-03T05:26:48.177Z,60.82
2023-03-03T05:27:48.175Z,56.38
2023-03-03T05:28:48.205Z,58.35
2023-03-03T05:29:48.155Z,57.73
2023-03-03T05:30:48.140Z,60.30
2023-03-03T05:31:48.183Z,62.52
2023-03-03T05:32:48.125Z,59.35
2023-03-03T05:33:48.171Z,59.41
2023-03-03T05:34:48.138Z,58.25
2023-03-03T05:35:48.172Z,65.34
2023-03-03T05:36:48.111Z,58.48
2023-03-03T05:37:48.868Z,60.97
2023-03-03T05:38:48.117Z,61.36
2023-03-03T05:39:48.077Z,62.56
2023-03-03T05:40:48.061Z,67.34
2023-03-03T05:41:48.062Z,64.20
2023-03-03T05:42:48.076Z,65.95
2023-03-03T05:43:48.090Z,63.07
2023-03-03T05:44:48.045Z,62.83
2023-03-03T05:45:48.051Z,61.97
2023-03-03T05:46:48.084Z,62.58
2023-03-03T05:47:48.015Z,63.87
2023-03-03T05:48:48.051Z,62.24
2023-03-03T05:49:48.001Z,62.97
2023-03-03T05:50:48.004Z,63.41
2023-03-03T05:51:47.992Z,62.56
2023-03-03T05:52:47.973Z,64.09
2023-03-03T05:53:48.010Z,61.96
2023-03-03T05:54:47.967Z,66.09
2023-03-03T05:55:47.952Z,61.94
2023-03-03T05:56:47.950Z,64.08
2023-03-03T05:57:47.961Z,64.00
2023-03-03T05:58:47.960Z,63.37
2023-03-03T05:59:47.970Z,66.66
2023-03-03T06:00:47.917Z,57.98
2023-03-03T06:01:47.953Z,59.03
2023-03-03T06:02:47.924Z,62.00
2023-03-03T06:03:47.977Z,57.95
2023-03-03T06:04:47.936Z,60.50
2023-03-03T06:05:47.907Z,65.34
2023-03-03T06:06:47.874Z,60.36
2023-03-03T06:07:47.912Z,58.76
2023-03-03T06:08:47.877Z,61.05
2023-03-03T06:09:47.914Z,59.68
2023-03-03T06:10:47.870Z,60.53
2023-03-03T06:11:47.898Z,60.45
2023-03-03T06:12:47.892Z,60.50
2023-03-03T06:13:47.840Z,61.18
2023-03-03T06:14:47.861Z,60.67
2023-03-03T06:15:47.825Z,59.24
2023-03-03T06:16:47.806Z,63.22
2023-03-03T06:17:48.082Z,60.69
2023-03-03T06:18:47.826Z,58.94
2023-03-03T06:19:47.808Z,62.00
2023-03-03T06:20:47.777Z,65.97
2023-03-03T06:21:47.761Z,58.72
2023-03-03T06:22:47.769Z,59.93
2023-03-03T06:23:47.788Z,60.33
2023-03-03T06:24:47.790Z,61.08
2023-03-03T06:25:47.739Z,65.19
2023-03-03T06:26:47.743Z,63.09
2023-03-03T06:27:47.731Z,64.65
2023-03-03T06:28:47.716Z,63.49
2023-03-03T06:29:47.770Z,62.99
2023-03-03T06:30:47.722Z,64.12
2023-03-03T06:31:47.763Z,63.43
2023-03-03T06:32:47.704Z,63.02
2023-03-03T06:33:47.673Z,61.02
2023-03-03T06:34:47.701Z,62.00
2023-03-03T06:35:47.753Z,64.81
2023-03-03T06:36:47.651Z,63.47
2023-03-03T06:37:47.647Z,62.73
2023-03-03T06:38:47.651Z,61.71
2023-03-03T06:39:47.625Z,58.96
2023-03-03T06:40:47.705Z,62.91
2023-03-03T06:41:47.658Z,62.57
2023-03-03T06:42:47.624Z,62.22
2023-03-03T06:43:47.606Z,61.11
2023-03-03T06:44:47.607Z,61.84
2023-03-03T06:45:47.655Z,60.37
2023-03-03T06:46:47.606Z,60.76
2023-03-03T06:47:47.565Z,61.19
2023-03-03T06:48:47.558Z,63.36
2023-03-03T06:49:47.648Z,59.50
2023-03-03T06:50:47.582Z,59.70
2023-03-03T06:51:47.583Z,61.19
2023-03-03T06:52:47.535Z,59.94
2023-03-03T06:53:47.521Z,60.32
2023-03-03T06:54:47.512Z,60.40
2023-03-03T06:55:47.544Z,58.32
2023-03-03T06:56:47.496Z,62.33
2023-03-03T06:57:47.519Z,60.06
2023-03-03T06:58:47.487Z,60.39
2023-03-03T06:59:47.480Z,58.93
2023-03-03T07:00:47.602Z,60.17
2023-03-03T07:01:47.463Z,58.14
2023-03-03T07:02:47.467Z,58.35
2023-03-03T07:03:47.559Z,58.14
2023-03-03T07:04:47.468Z,61.54
2023-03-03T07:05:47.461Z,54.80
2023-03-03T07:06:47.469Z,58.05
2023-03-03T07:07:47.430Z,59.16
2023-03-03T07:08:47.441Z,55.18
2023-03-03T07:09:47.418Z,57.12
2023-03-03T07:10:47.511Z,58.82
2023-03-03T07:11:47.466Z,63.39
2023-03-03T07:12:47.389Z,60.26
2023-03-03T07:13:47.398Z,61.62
2023-03-03T07:14:47.389Z,62.73
2023-03-03T07:15:47.409Z,60.89
2023-03-03T07:16:47.419Z,61.28
2023-03-03T07:17:48.476Z,62.09
2023-03-03T07:18:47.391Z,62.44
2023-03-03T07:19:47.346Z,61.54
2023-03-03T07:20:47.354Z,62.31
2023-03-03T07:21:47.325Z,63.56
2023-03-03T07:22:47.353Z,62.58
2023-03-03T07:23:47.335Z,63.18
2023-03-03T07:24:47.399Z,63.09
2023-03-03T07:25:47.345Z,66.04
2023-03-03T07:26:47.298Z,62.14
2023-03-03T07:27:47.334Z,62.35
2023-03-03T07:28:47.276Z,62.35
2023-03-03T07:29:47.272Z,61.84
2023-03-03T07:30:47.292Z,64.52
2023-03-03T07:31:47.289Z,61.87
2023-03-03T07:32:47.233Z,63.47
2023-03-03T07:33:48.252Z,63.86
2023-03-03T07:34:47.243Z,62.12
2023-03-03T07:35:47.293Z,63.91
2023-03-03T07:36:47.267Z,61.73
2023-03-03T07:37:47.200Z,61.81
2023-03-03T07:38:47.196Z,59.02
2023-03-03T07:39:47.183Z,56.07
2023-03-03T07:40:48.183Z,58.18
2023-03-03T07:41:47.205Z,63.72
2023-03-03T07:42:47.179Z,58.98
2023-03-03T07:43:47.189Z,58.82
2023-03-03T07:44:47.175Z,60.87
2023-03-03T07:45:47.208Z,55.69
2023-03-03T07:46:47.170Z,56.62
2023-03-03T07:47:47.137Z,58.48
2023-03-03T07:48:47.139Z,58.06
2023-03-03T07:49:47.122Z,62.22
2023-03-03T07:50:47.112Z,58.52
2023-03-03T07:51:47.149Z,57.61
2023-03-03T07:52:47.104Z,53.53
2023-03-03T07:53:47.090Z,57.59
2023-03-03T07:54:47.080Z,61.15
2023-03-03T07:55:47.071Z,60.99
2023-03-03T07:56:47.147Z,64.28
2023-03-03T07:57:47.057Z,57.82
2023-03-03T07:58:47.064Z,58.52
2023-03-03T07:59:47.047Z,57.14
2023-03-03T08:00:47.123Z,60.49
2023-03-03T08:01:47.074Z,59.75
2023-03-03T08:02:47.041Z,57.08
2023-03-03T08:03:47.058Z,57.84
2023-03-03T08:04:47.078Z,58.30
2023-03-03T08:05:47.021Z,59.16
2023-03-03T08:06:47.027Z,59.02
2023-03-03T08:07:46.995Z,58.11
2023-03-03T08:08:46.981Z,60.76
2023-03-03T08:09:46.974Z,57.52
2023-03-03T08:10:47.050Z,54.94
2023-03-03T08:11:46.987Z,59.36
2023-03-03T08:12:46.944Z,62.91
2023-03-03T08:13:46.938Z,59.89
2023-03-03T08:14:46.921Z,58.78
2023-03-03T08:15:47.009Z,59.16
2023-03-03T08:16:46.933Z,60.72
2023-03-03T08:17:46.925Z,61.50
2023-03-03T08:18:46.897Z,59.13
2023-03-03T08:19:46.928Z,59.99
2023-03-03T08:20:46.875Z,64.09
2023-03-03T08:21:47.692Z,59.30
2023-03-03T08:22:46.939Z,59.02
2023-03-03T08:23:46.858Z,59.43
2023-03-03T08:24:46.842Z,60.33
2023-03-03T08:25:46.922Z,57.89
2023-03-03T08:26:46.829Z,58.54
2023-03-03T08:27:46.863Z,58.62
2023-03-03T08:28:46.802Z,57.40
2023-03-03T08:29:48.552Z,59.62
2023-03-03T08:30:47.851Z,58.67
2023-03-03T08:31:46.799Z,59.12
2023-03-03T08:32:46.926Z,58.34
2023-03-03T08:33:46.760Z,58.96
2023-03-03T08:34:46.761Z,59.43
2023-03-03T08:35:46.797Z,61.23
2023-03-03T08:36:46.835Z,63.00
2023-03-03T08:37:46.775Z,62.80
2023-03-03T08:38:46.737Z,62.71
2023-03-03T08:39:46.712Z,62.18
2023-03-03T08:40:46.745Z,60.68
2023-03-03T08:41:46.713Z,61.26
2023-03-03T08:42:46.718Z,64.60
2023-03-03T08:43:47.678Z,61.56
2023-03-03T08:44:46.690Z,61.53
2023-03-03T08:45:46.671Z,61.43
2023-03-03T08:46:46.696Z,62.71
2023-03-03T08:47:46.684Z,63.43
2023-03-03T08:48:46.653Z,61.98
2023-03-03T08:49:46.643Z,60.85
2023-03-03T08:50:46.632Z,62.88
2023-03-03T08:51:46.651Z,64.36
2023-03-03T08:52:46.692Z,60.22
2023-03-03T08:53:46.698Z,59.64
2023-03-03T08:54:46.633Z,59.24
2023-03-03T08:55:46.597Z,58.49
2023-03-03T08:56:46.587Z,58.59
2023-03-03T08:57:46.619Z,64.83
2023-03-03T08:59:01.279Z,59.30
2023-03-03T08:59:48.570Z,56.00
2023-03-03T09:00:49.252Z,59.96
2023-03-03T09:01:47.669Z,60.84
2023-03-03T09:02:46.640Z,59.89
2023-03-03T09:03:46.546Z,58.22
2023-03-03T09:04:46.545Z,55.77
2023-03-03T09:05:46.546Z,59.35
2023-03-03T09:06:46.527Z,62.56
2023-03-03T09:07:47.935Z,59.65
2023-03-03T09:08:47.499Z,58.90
2023-03-03T09:09:46.498Z,62.56
2023-03-03T09:10:47.853Z,59.25
2023-03-03T09:11:46.470Z,63.88
2023-03-03T09:12:46.488Z,59.23
2023-03-03T09:13:46.478Z,58.58
2023-03-03T09:14:46.442Z,60.32
2023-03-03T09:15:46.445Z,60.34
2023-03-03T09:16:46.444Z,61.26
2023-03-03T09:17:46.808Z,60.53
2023-03-03T09:18:46.422Z,60.35
2023-03-03T09:19:46.421Z,59.74
2023-03-03T09:20:46.416Z,59.46
2023-03-03T09:21:46.387Z,61.07
2023-03-03T09:22:46.379Z,61.70
2023-03-03T09:23:46.414Z,56.26
2023-03-03T09:24:46.380Z,57.64
2023-03-03T09:25:47.307Z,59.02
2023-03-03T09:26:46.357Z,58.45
2023-03-03T09:27:46.378Z,56.60
2023-03-03T09:28:46.375Z,62.40
2023-03-03T09:29:46.333Z,57.53
2023-03-03T09:30:46.325Z,58.55
2023-03-03T09:31:46.386Z,57.50
2023-03-03T09:32:46.312Z,61.37
2023-03-03T09:33:46.346Z,58.14
2023-03-03T09:34:46.298Z,57.93
2023-03-03T09:35:46.308Z,61.22
2023-03-03T09:36:46.276Z,59.89
2023-03-03T09:37:46.273Z,59.67
2023-03-03T09:38:46.285Z,58.63
2023-03-03T09:39:46.249Z,64.03
2023-03-03T09:40:46.246Z,59.64
2023-03-03T09:41:46.236Z,53.47
2023-03-03T09:42:46.238Z,56.72
2023-03-03T09:43:46.276Z,59.79
2023-03-03T09:44:46.242Z,59.54
2023-03-03T09:45:47.208Z,59.04
2023-03-03T09:46:46.699Z,59.02
2023-03-03T09:47:46.214Z,57.71
2023-03-03T09:48:46.212Z,58.06
2023-03-03T09:49:46.177Z,58.63
2023-03-03T09:50:46.193Z,59.30
2023-03-03T09:51:46.175Z,60.78
2023-03-03T09:52:46.186Z,60.30
2023-03-03T09:53:46.139Z,61.61
2023-03-03T09:54:46.173Z,63.01
2023-03-03T09:55:46.161Z,61.26
2023-03-03T09:56:46.123Z,61.49
2023-03-03T09:57:46.112Z,61.67
2023-03-03T09:58:46.120Z,62.05
2023-03-03T09:59:46.125Z,64.90
2023-03-03T10:00:46.112Z,63.26
2023-03-03T10:01:46.077Z,61.25
2023-03-03T10:02:46.134Z,60.90
2023-03-03T10:03:46.114Z,61.79
2023-03-03T10:04:46.595Z,61.00
2023-03-03T10:05:46.479Z,61.89
2023-03-03T10:06:46.052Z,62.22
2023-03-03T10:07:46.039Z,61.39
2023-03-03T10:08:46.281Z,61.10
2023-03-03T10:09:46.430Z,63.94
2023-03-03T10:10:46.058Z,61.46
2023-03-03T10:11:46.007Z,61.67
2023-03-03T10:12:46.449Z,62.10
2023-03-03T10:13:45.988Z,61.02
2023-03-03T10:14:46.000Z,61.38
2023-03-03T10:15:46.475Z,61.09
2023-03-03T10:16:46.075Z,62.59
2023-03-03T10:17:46.537Z,63.82
2023-03-03T10:18:45.956Z,60.70
2023-03-03T10:19:45.970Z,60.56
2023-03-03T10:20:50.180Z,59.28
2023-03-03T10:21:47.419Z,62.77
2023-03-03T10:22:45.916Z,58.94
2023-03-03T10:23:46.497Z,61.16
2023-03-03T10:24:46.556Z,56.01
2023-03-03T10:25:46.351Z,58.95
2023-03-03T10:26:52.535Z,58.78
2023-03-03T10:27:47.901Z,58.74
2023-03-03T10:28:46.238Z,57.48
2023-03-03T10:29:45.885Z,62.47
2023-03-03T10:31:02.035Z,57.04
2023-03-03T10:31:47.936Z,56.91
2023-03-03T10:32:46.035Z,58.27
2023-03-03T10:33:45.960Z,58.48
2023-03-03T10:34:45.835Z,55.94
2023-03-03T10:36:00.883Z,58.16
2023-03-03T10:36:47.813Z,58.66
2023-03-03T10:37:46.037Z,56.17
2023-03-03T10:38:45.818Z,54.28
2023-03-03T10:39:45.824Z,60.92
2023-03-03T10:40:45.813Z,59.94
2023-03-03T10:41:45.787Z,57.27
2023-03-03T10:42:45.765Z,57.31
2023-03-03T10:43:45.767Z,56.82
2023-03-03T10:44:45.759Z,60.84
2023-03-03T10:45:45.835Z,57.85
2023-03-03T10:46:45.746Z,57.04
2023-03-03T10:47:45.740Z,55.32
2023-03-03T10:48:45.745Z,55.33
2023-03-03T10:49:45.720Z,57.15
2023-03-03T10:50:45.762Z,54.91
2023-03-03T10:51:45.701Z,55.22
2023-03-03T10:52:45.706Z,54.95
2023-03-03T10:53:45.697Z,61.86
2023-03-03T10:54:45.689Z,57.58
2023-03-03T10:55:45.702Z,54.80
2023-03-03T10:56:52.805Z,57.66
2023-03-03T10:57:47.663Z,57.52
2023-03-03T10:58:45.680Z,57.01
2023-03-03T10:59:45.644Z,59.08
2023-03-03T11:00:45.731Z,57.19
2023-03-03T11:01:45.643Z,56.94
2023-03-03T11:02:45.622Z,60.87
2023-03-03T11:03:45.621Z,58.94
2023-03-03T11:04:45.639Z,56.41
2023-03-03T11:05:45.685Z,56.60
2023-03-03T11:06:45.646Z,64.03
2023-03-03T11:07:45.587Z,53.73
2023-03-03T11:08:45.583Z,56.38
2023-03-03T11:09:45.578Z,56.29
2023-03-03T11:10:45.588Z,60.69
2023-03-03T11:11:45.557Z,55.94
2023-03-03T11:12:45.553Z,55.66
2023-03-03T11:13:45.539Z,57.34
2023-03-03T11:14:45.528Z,56.96
2023-03-03T11:15:45.593Z,56.95
2023-03-03T11:16:45.540Z,53.06
2023-03-03T11:17:45.507Z,56.73
2023-03-03T11:18:45.605Z,59.64
2023-03-03T11:19:45.498Z,63.48
2023-03-03T11:20:45.484Z,60.04
2023-03-03T11:21:45.503Z,59.32
2023-03-03T11:22:46.199Z,57.96
2023-03-03T11:23:45.456Z,58.38
2023-03-03T11:24:45.443Z,56.32
2023-03-03T11:25:45.440Z,55.56
2023-03-03T11:26:45.460Z,57.11
2023-03-03T11:27:45.429Z,59.70
2023-03-03T11:28:45.414Z,58.82
2023-03-03T11:29:45.412Z,55.61
2023-03-03T11:30:45.457Z,58.80
2023-03-03T11:31:45.430Z,56.99
2023-03-03T11:32:45.387Z,61.50
2023-03-03T11:33:45.407Z,59.46
2023-03-03T11:34:45.374Z,59.37
2023-03-03T11:35:45.405Z,57.69
2023-03-03T11:36:45.380Z,59.20
2023-03-03T11:37:45.354Z,58.87
2023-03-03T11:38:45.357Z,58.78
2023-03-03T11:39:45.337Z,64.07
2023-03-03T11:40:45.367Z,57.27
2023-03-03T11:41:45.347Z,55.66
2023-03-03T11:42:45.312Z,56.52
2023-03-03T11:43:45.308Z,59.63
2023-03-03T11:44:45.304Z,61.53
2023-03-03T11:45:45.333Z,57.27
2023-03-03T11:46:45.307Z,54.09
2023-03-03T11:47:45.274Z,58.20
2023-03-03T11:48:45.275Z,61.83
2023-03-03T11:49:45.259Z,57.54
2023-03-03T11:50:45.251Z,58.05
2023-03-03T11:51:45.297Z,58.62
2023-03-03T11:52:45.236Z,59.81
2023-03-03T11:53:45.227Z,58.52
2023-03-03T11:54:45.219Z,60.40
2023-03-03T11:55:45.224Z,61.48
2023-03-03T11:56:45.204Z,57.92
2023-03-03T11:57:45.228Z,58.55
2023-03-03T11:58:45.184Z,57.66
2023-03-03T11:59:45.177Z,55.67
2023-03-03T12:00:45.172Z,59.55
2023-03-03T12:01:45.158Z,58.38
2023-03-03T12:02:45.264Z,57.90
2023-03-03T12:03:45.150Z,58.13
2023-03-03T12:04:45.145Z,58.89
2023-03-03T12:05:45.160Z,59.82
2023-03-03T12:06:45.122Z,58.80
2023-03-03T12:07:45.141Z,58.70
2023-03-03T12:08:45.149Z,58.06
2023-03-03T12:09:45.098Z,59.76
2023-03-03T12:10:45.096Z,59.94
2023-03-03T12:11:45.082Z,58.79
2023-03-03T12:12:45.103Z,61.45
2023-03-03T12:13:45.091Z,59.21
2023-03-03T12:14:45.061Z,55.83
2023-03-03T12:15:45.063Z,55.04
2023-03-03T12:16:45.070Z,58.50
2023-03-03T12:17:45.070Z,56.72
2023-03-03T12:18:45.030Z,58.88
2023-03-03T12:19:45.044Z,60.37
2023-03-03T12:20:45.084Z,60.23
2023-03-03T12:21:45.053Z,60.45
2023-03-03T12:22:47.127Z,61.24
2023-03-03T12:23:45.037Z,58.28
2023-03-03T12:24:45.033Z,59.32
2023-03-03T12:25:45.021Z,60.03
2023-03-03T12:26:45.018Z,60.26
2023-03-03T12:27:45.044Z,58.64
2023-03-03T12:28:45.006Z,59.82
2023-03-03T12:29:45.028Z,59.11
2023-03-03T12:30:44.995Z,60.66
2023-03-03T12:31:45.023Z,61.83
2023-03-03T12:32:45.028Z,58.56
2023-03-03T12:33:44.974Z,58.12
2023-03-03T12:34:44.960Z,57.79
2023-03-03T12:35:44.984Z,55.72
2023-03-03T12:36:44.954Z,58.27
2023-03-03T12:37:44.957Z,60.11
2023-03-03T12:38:44.972Z,61.34
2023-03-03T12:39:44.928Z,64.20
2023-03-03T12:40:44.920Z,61.72
2023-03-03T12:41:44.919Z,62.28
2023-03-03T12:42:44.910Z,62.25
2023-03-03T12:43:44.915Z,62.36
2023-03-03T12:44:44.899Z,61.07
2023-03-03T12:45:44.999Z,61.37
2023-03-03T12:46:44.978Z,60.94
2023-03-03T12:47:44.868Z,60.47
2023-03-03T12:48:44.867Z,60.78
2023-03-03T12:49:48.054Z,61.68
2023-03-03T12:50:46.849Z,64.74
2023-03-03T12:51:44.862Z,60.51
2023-03-03T12:52:44.837Z,60.50